• Join FlightAware (Why Join?)
  • Login
  • US Flag 
07:33AM EDT


 

Airport Tracker/Info


-or-


 

Live Flight TrackerFlight Track Log ✈ EGF4039 ✈ 29-Apr-2013 ✈ KALO - KORD

Flight Track Log - Related Links

Times and Time Zones

All times are in EDT time to prevent confusion due to time zone crossing. See the EGF4039 flight status page for this flight to view local times or setup timezone preferences in your user account.

Time Position Orientation Groundspeed Altitude Reporting Facility
EDT Latitude Longitude Course Direction KTS MPH feet Rate Location/Type
05:07PM 42.5275 -92.2850 97° East 241 277 5,800  Level Chicago Center
05:08PM 42.5203 -92.1781 95° East 238 274 9,400 2,280 Climbing Chicago Center
05:09PM 42.5114 -92.0622 96° East 288 331 10,600 1,260 Climbing Chicago Center
05:10PM 42.4884 -91.7391 97° East  Level FlightAware Approximate
05:10PM 42.5014 -91.9258 96° East 336 387 12,100  Level Chicago Center
05:11PM 42.4817 -91.6158 97° East  Level FlightAware Approximate
05:11PM 42.4894 -91.7808 96° East 385 443 14,000  Level Chicago Center
05:12PM 42.4700 -91.4929 97° East  Level FlightAware Approximate
05:12PM 42.4753 -91.6017 96° East 405 466 16,400  Level Chicago Center
05:13PM 42.4636 -91.4506 96° East 412 474 18,500 1,980 Climbing Chicago Center
05:14PM 42.4506 -91.2986 97° East 413 475 20,500 1,740 Climbing Chicago Center
05:15PM 42.4378 -91.1458 96° East 415 478 22,200 1,200 Climbing Chicago Center
05:16PM 42.4203 -90.9506 97° East 439 505 23,000 360 Climbing Chicago Center
05:17PM 42.4058 -90.7781 96° East 463 533 23,000  Level Chicago Center
05:18PM 42.4119 -90.6028 87° East 492 566 23,000  Level Chicago Center
05:19PM 42.4292 -90.4317 82° East 471 542 23,000  Level Chicago Center
05:20PM 42.4461 -90.2608 82° East 464 534 23,000  Level Chicago Center
05:21PM 42.4669 -90.0550 82° East 466 536 23,000  Level Chicago Center
05:22PM 42.4839 -89.8844 82° East 462 532 23,000  Level Chicago Center
05:23PM 42.4994 -89.7153 83° East 455 524 23,000  Level Chicago Center
05:24PM 42.5164 -89.5431 82° East 460 529 23,000 -900 Level Chicago Center
05:25PM 42.5350 -89.3422 83° East 461 531 21,200 -2,520 Descending Chicago Center
05:26PM 42.5508 -89.1808 82° East 438 504 17,800 -3,060 Descending Chicago Center
05:27PM 42.5336 -89.0267 99° East 416 479 14,900 -2,460 Descending Chicago Center
05:28PM 42.4919 -88.8861 112° Southeast 404 465 12,700 -1,560 Descending Chicago Center
05:29PM 42.4581 -88.7772 113° Southeast 317 365 11,700 -1,260 Descending Chicago Center
05:30PM 42.4244 -88.6622 112° Southeast 285 328 10,200 -1,260 Descending Chicago Center
05:31PM 42.3956 -88.5681 113° Southeast 274 315 9,100 -600 Descending Chicago Center
05:32PM 42.3656 -88.4728 113° Southeast 275 316 9,000 -60 Descending Chicago Center
05:33PM 42.3347 -88.3789 114° Southeast 274 315 9,000 -540 Level Chicago Center
05:35PM 42.2983 -88.2825 117° Southeast 259 298 7,900 -780 Descending Chicago Center
05:36PM 42.2556 -88.2331 139° Southeast 207 238 7,500 -600 Descending Chicago Center
05:37PM 42.2189 -88.1911 140° Southeast 181 208 6,700 -960 Descending Chicago Center
05:38PM 42.1819 -88.1506 141° Southeast 175 201 5,600 -900 Descending Chicago Center
05:39PM 42.1469 -88.1117 141° Southeast 168 193 4,900 -840 Descending Chicago Center
05:40PM 42.1142 -88.0728 139° Southeast 160 184 3,900 -1,020 Descending Chicago Center
05:41PM 42.0833 -88.0333 136° Southeast 153 176 2,900 -1,020 Descending Chicago TRACON